createdAt,value
2022-08-08T00:01:08.115Z,15.69
2022-08-08T00:04:25.508Z,15.60
2022-08-08T00:07:30.320Z,15.52
2022-08-08T00:10:28.320Z,15.50
2022-08-08T00:14:14.971Z,15.46
2022-08-08T00:16:20.477Z,15.46
2022-08-08T00:19:27.531Z,15.37
2022-08-08T00:22:04.729Z,15.37
2022-08-08T00:24:44.375Z,15.29
2022-08-08T00:27:13.509Z,15.23
2022-08-08T00:30:00.077Z,15.21
2022-08-08T00:32:47.306Z,15.16
2022-08-08T00:35:39.831Z,15.12
2022-08-08T00:38:30.944Z,15.13
2022-08-08T00:41:54.920Z,15.09
2022-08-08T00:45:00.051Z,15.07
2022-08-08T00:48:30.245Z,14.94
2022-08-08T00:51:38.847Z,14.91
2022-08-08T00:54:57.075Z,14.82
2022-08-08T00:57:57.905Z,14.82
2022-08-08T01:00:35.923Z,14.83
2022-08-08T01:04:01.626Z,14.74
2022-08-08T01:06:49.946Z,14.70
2022-08-08T01:09:41.159Z,14.56
2022-08-08T01:12:46.124Z,14.65
2022-08-08T01:15:47.300Z,14.59
2022-08-08T01:18:53.046Z,14.47
2022-08-08T01:22:09.780Z,14.46
2022-08-08T01:25:02.348Z,14.48
2022-08-08T01:28:09.256Z,14.37
2022-08-08T01:32:13.762Z,14.32
2022-08-08T01:34:29.948Z,14.32
2022-08-08T01:37:57.413Z,14.32
2022-08-08T01:40:35.708Z,14.26
2022-08-08T01:43:43.466Z,14.27
2022-08-08T01:46:43.534Z,14.23
2022-08-08T01:49:23.306Z,14.22
2022-08-08T01:52:44.307Z,14.13
2022-08-08T01:56:29.442Z,14.05
2022-08-08T02:00:02.296Z,14.01
2022-08-08T02:02:42.742Z,14.01
2022-08-08T02:05:23.336Z,13.90
2022-08-08T02:08:10.769Z,13.95
2022-08-08T02:11:02.108Z,13.88
2022-08-08T02:13:55.663Z,13.89
2022-08-08T02:16:30.160Z,13.83
2022-08-08T02:19:41.922Z,13.80
2022-08-08T02:22:31.963Z,13.80
2022-08-08T02:25:20.350Z,13.75
2022-08-08T02:28:06.214Z,13.75
2022-08-08T02:31:04.572Z,13.68
2022-08-08T02:34:09.094Z,13.70
2022-08-08T02:36:59.262Z,13.63
2022-08-08T02:39:42.082Z,13.61
2022-08-08T02:42:38.163Z,13.59
2022-08-08T02:45:51.839Z,13.51
2022-08-08T02:48:45.516Z,13.45
2022-08-08T02:51:55.098Z,13.48
2022-08-08T02:54:59.234Z,13.37
2022-08-08T02:58:09.249Z,13.38
2022-08-08T03:01:02.608Z,13.34
2022-08-08T03:05:02.373Z,13.26
2022-08-08T03:07:41.598Z,13.20
2022-08-08T03:11:05.760Z,13.18
2022-08-08T03:16:00.784Z,13.18
2022-08-08T03:17:02.219Z,13.18
2022-08-08T03:20:03.685Z,13.10
2022-08-08T03:22:38.034Z,13.13
2022-08-08T03:25:18.004Z,13.06
2022-08-08T03:28:05.470Z,13.02
2022-08-08T03:30:32.372Z,13.01
2022-08-08T03:33:55.986Z,13.05
2022-08-08T03:36:10.254Z,13.00
2022-08-08T03:38:58.135Z,12.96
2022-08-08T03:42:12.627Z,12.88
2022-08-08T03:44:25.576Z,12.89
2022-08-08T03:46:54.023Z,12.91
2022-08-08T03:49:57.739Z,12.81
2022-08-08T03:52:14.131Z,12.77
2022-08-08T03:55:02.667Z,12.78
2022-08-08T03:58:32.185Z,12.68
2022-08-08T04:00:26.159Z,12.66
2022-08-08T04:03:06.330Z,12.66
2022-08-08T04:05:39.978Z,12.61
2022-08-08T04:08:32.549Z,12.58
2022-08-08T04:11:11.397Z,12.57
2022-08-08T04:14:03.474Z,12.62
2022-08-08T04:16:38.894Z,12.50
2022-08-08T04:19:23.935Z,12.53
2022-08-08T04:21:54.089Z,12.52
2022-08-08T04:24:30.548Z,12.51
2022-08-08T04:26:59.730Z,12.47
2022-08-08T04:29:33.240Z,12.44
2022-08-08T04:32:06.875Z,12.44
2022-08-08T04:34:49.348Z,12.38
2022-08-08T04:37:31.915Z,12.42
2022-08-08T04:40:05.664Z,12.38
2022-08-08T04:42:36.736Z,12.29
2022-08-08T04:45:08.055Z,12.34
2022-08-08T04:47:43.389Z,12.33
2022-08-08T04:50:23.632Z,12.36
2022-08-08T04:52:58.910Z,12.34
2022-08-08T04:55:37.573Z,12.35
2022-08-08T04:58:17.636Z,12.33
2022-08-08T05:00:45.068Z,12.42
2022-08-08T05:03:18.715Z,12.39
2022-08-08T05:06:13.421Z,12.44
2022-08-08T05:08:51.858Z,12.48
2022-08-08T05:11:23.918Z,12.44
2022-08-08T05:13:57.925Z,12.48
2022-08-08T05:16:51.795Z,12.58
2022-08-08T05:20:11.295Z,12.58
2022-08-08T05:22:06.393Z,12.64
2022-08-08T05:24:34.028Z,12.72
2022-08-08T05:27:00.932Z,12.79
2022-08-08T05:29:29.249Z,12.88
2022-08-08T05:32:04.165Z,12.95
2022-08-08T05:34:49.194Z,12.99
2022-08-08T05:37:39.124Z,13.11
2022-08-08T05:40:11.709Z,13.23
2022-08-08T05:42:44.980Z,13.28
2022-08-08T05:45:25.464Z,13.33
2022-08-08T05:48:00.431Z,13.41
2022-08-08T05:50:33.615Z,13.60
2022-08-08T05:53:54.861Z,13.74
2022-08-08T05:56:08.340Z,13.65
2022-08-08T05:58:53.873Z,13.71
2022-08-08T06:01:52.586Z,13.84
2022-08-08T06:04:22.967Z,13.82
2022-08-08T06:07:00.251Z,14.08
2022-08-08T06:09:58.935Z,14.13
2022-08-08T06:12:29.807Z,14.18
2022-08-08T06:15:03.141Z,14.23
2022-08-08T06:18:18.380Z,14.27
2022-08-08T06:20:29.344Z,14.47
2022-08-08T06:22:57.989Z,14.54
2022-08-08T06:26:34.952Z,14.46
2022-08-08T06:28:29.208Z,14.62
2022-08-08T06:31:01.201Z,14.65
2022-08-08T06:34:26.727Z,14.72
2022-08-08T06:36:53.682Z,14.77
2022-08-08T06:39:21.868Z,14.85
2022-08-08T06:41:59.915Z,14.78
2022-08-08T06:44:30.422Z,14.93
2022-08-08T06:46:59.001Z,14.94
2022-08-08T06:49:56.563Z,14.96
2022-08-08T06:52:16.225Z,15.05
2022-08-08T06:54:44.521Z,15.14
2022-08-08T06:57:16.083Z,15.19
2022-08-08T07:00:10.795Z,15.23
2022-08-08T07:02:33.630Z,15.31
2022-08-08T07:05:21.047Z,15.30
2022-08-08T07:08:27.271Z,15.44
2022-08-08T07:10:59.722Z,15.54
2022-08-08T07:14:01.154Z,15.62
2022-08-08T07:16:54.163Z,15.82
2022-08-08T07:20:11.406Z,15.87
2022-08-08T07:22:53.636Z,16.05
2022-08-08T07:25:29.365Z,16.12
2022-08-08T07:28:18.615Z,16.27
2022-08-08T07:30:47.509Z,16.39
2022-08-08T07:33:17.646Z,16.49
2022-08-08T07:35:48.602Z,16.66
2022-08-08T07:38:20.822Z,16.88
2022-08-08T07:41:04.568Z,17.04
2022-08-08T07:43:37.682Z,17.24
2022-08-08T07:46:24.089Z,17.45
2022-08-08T07:48:52.753Z,17.67
2022-08-08T07:51:23.924Z,17.98
2022-08-08T07:54:33.786Z,18.25
2022-08-08T07:57:36.127Z,18.54
2022-08-08T08:00:16.183Z,18.68
2022-08-08T08:02:56.080Z,18.97
2022-08-08T08:05:33.512Z,19.20
2022-08-08T08:08:09.367Z,19.57
2022-08-08T08:10:39.477Z,19.74
2022-08-08T08:13:25.945Z,19.93
2022-08-08T08:16:17.176Z,20.29
2022-08-08T08:18:52.167Z,20.50
2022-08-08T08:21:44.532Z,20.74
2022-08-08T08:24:14.477Z,20.97
2022-08-08T08:26:52.441Z,21.18
2022-08-08T08:29:20.351Z,21.41
2022-08-08T08:31:57.701Z,21.61
2022-08-08T08:34:32.106Z,21.77
2022-08-08T08:37:03.512Z,22.01
2022-08-08T08:40:00.416Z,22.04
2022-08-08T08:42:31.964Z,22.10
2022-08-08T08:45:21.849Z,22.36
2022-08-08T08:47:58.636Z,22.59
2022-08-08T08:50:32.390Z,22.75
2022-08-08T08:53:27.251Z,22.91
2022-08-08T08:56:02.973Z,22.82
2022-08-08T08:58:49.855Z,23.07
2022-08-08T09:01:20.693Z,23.40
2022-08-08T09:03:50.666Z,23.14
2022-08-08T09:06:33.944Z,23.09
2022-08-08T09:09:35.504Z,23.19
2022-08-08T09:12:12.912Z,23.18
2022-08-08T09:14:44.856Z,23.06
2022-08-08T09:17:18.889Z,22.91
2022-08-08T09:22:01.170Z,22.61
2022-08-08T09:22:36.226Z,22.44
2022-08-08T09:25:07.601Z,22.16
2022-08-08T09:27:57.575Z,22.20
2022-08-08T09:30:28.036Z,22.35
2022-08-08T09:33:12.510Z,22.57
2022-08-08T09:35:50.218Z,22.70
2022-08-08T09:38:59.916Z,22.92
2022-08-08T09:42:15.167Z,23.13
2022-08-08T09:44:43.580Z,23.38
2022-08-08T09:47:25.405Z,23.52
2022-08-08T09:50:03.438Z,23.68
2022-08-08T09:52:54.202Z,23.81
2022-08-08T09:55:51.624Z,23.90
2022-08-08T09:58:26.102Z,23.98
2022-08-08T10:01:02.426Z,23.88
2022-08-08T10:03:42.913Z,23.84
2022-08-08T10:06:15.967Z,23.78
2022-08-08T10:08:48.964Z,23.80
2022-08-08T10:12:28.418Z,23.90
2022-08-08T10:14:27.702Z,23.93
2022-08-08T10:16:56.074Z,24.10
2022-08-08T10:19:46.100Z,24.22
2022-08-08T10:22:28.657Z,24.39
2022-08-08T10:25:05.423Z,24.45
2022-08-08T10:27:42.850Z,24.61
2022-08-08T10:30:16.575Z,24.76
2022-08-08T10:33:00.803Z,24.88
2022-08-08T10:36:09.586Z,24.89
2022-08-08T10:38:21.471Z,24.98
2022-08-08T10:40:58.673Z,25.09
2022-08-08T10:43:37.963Z,25.09
2022-08-08T10:46:30.352Z,25.05
2022-08-08T10:48:59.620Z,25.01
2022-08-08T10:51:47.086Z,24.88
2022-08-08T10:54:27.013Z,25.06
2022-08-08T10:57:05.564Z,25.09
2022-08-08T10:59:39.642Z,25.23
2022-08-08T11:02:09.406Z,25.37
2022-08-08T11:04:52.977Z,25.43
2022-08-08T11:08:30.131Z,25.48
2022-08-08T11:10:28.676Z,25.57
2022-08-08T11:13:27.925Z,25.64
2022-08-08T11:15:53.211Z,25.74
2022-08-08T11:18:30.581Z,25.63
2022-08-08T11:21:08.943Z,25.33
2022-08-08T11:23:42.373Z,25.24
2022-08-08T11:26:19.211Z,25.00
2022-08-08T11:28:50.298Z,24.98
2022-08-08T11:31:17.368Z,24.99
2022-08-08T11:33:52.585Z,24.99
2022-08-08T11:36:27.823Z,25.14
2022-08-08T11:38:57.261Z,25.26
2022-08-08T11:41:32.133Z,25.38
2022-08-08T11:44:01.879Z,25.52
2022-08-08T11:46:32.856Z,25.63
2022-08-08T11:49:04.991Z,25.74
2022-08-08T11:51:40.099Z,25.85
2022-08-08T11:54:31.250Z,25.83
2022-08-08T11:57:14.462Z,26.04
2022-08-08T12:00:05.355Z,26.05
2022-08-08T12:02:46.735Z,26.12
2022-08-08T12:05:14.117Z,26.19
2022-08-08T12:07:49.678Z,26.21
2022-08-08T12:10:25.636Z,26.29
2022-08-08T12:13:10.223Z,26.31
2022-08-08T12:15:49.244Z,26.35
2022-08-08T12:18:24.681Z,26.37
2022-08-08T12:20:55.362Z,26.38
2022-08-08T12:23:43.880Z,26.28
2022-08-08T12:26:28.473Z,26.21
2022-08-08T12:29:36.515Z,26.28
2022-08-08T12:32:19.615Z,26.40
2022-08-08T12:35:01.338Z,26.36
2022-08-08T12:37:43.084Z,26.39
2022-08-08T12:40:22.686Z,26.40
2022-08-08T12:42:52.355Z,26.33
2022-08-08T12:45:58.482Z,26.45
2022-08-08T12:48:36.684Z,26.47
2022-08-08T12:51:07.640Z,26.48
2022-08-08T12:53:42.219Z,26.55
2022-08-08T12:56:19.531Z,26.44
2022-08-08T12:58:54.006Z,26.39
2022-08-08T13:01:24.634Z,26.50
2022-08-08T13:04:28.453Z,26.55
2022-08-08T13:07:16.483Z,26.57
2022-08-08T13:10:04.687Z,26.60
2022-08-08T13:12:47.142Z,26.58
2022-08-08T13:15:19.326Z,26.48
2022-08-08T13:18:08.298Z,26.53
2022-08-08T13:20:45.995Z,26.66
2022-08-08T13:23:41.909Z,26.75
2022-08-08T13:26:14.622Z,26.79
2022-08-08T13:28:45.369Z,26.92
2022-08-08T13:31:16.603Z,26.96
2022-08-08T13:33:49.722Z,26.91
2022-08-08T13:36:26.123Z,26.93
2022-08-08T13:39:00.043Z,26.82
2022-08-08T13:41:28.387Z,26.76
2022-08-08T13:44:08.592Z,26.79
2022-08-08T13:46:38.986Z,26.86
2022-08-08T13:50:36.386Z,26.91
2022-08-08T13:52:08.080Z,26.97
2022-08-08T13:54:44.287Z,27.05
2022-08-08T13:57:17.145Z,27.10
2022-08-08T13:59:48.481Z,27.18
2022-08-08T14:02:32.691Z,27.17
2022-08-08T14:05:19.861Z,27.17
2022-08-08T14:07:53.069Z,27.25
2022-08-08T14:10:33.557Z,27.28
2022-08-08T14:13:21.021Z,27.33
2022-08-08T14:16:04.786Z,27.39
2022-08-08T14:19:03.139Z,27.22
2022-08-08T14:21:52.172Z,27.20
2022-08-08T14:24:32.356Z,27.17
2022-08-08T14:26:59.280Z,27.08
2022-08-08T14:29:30.385Z,27.01
2022-08-08T14:32:11.487Z,26.89
2022-08-08T14:34:43.192Z,26.77
2022-08-08T14:37:13.283Z,26.80
2022-08-08T14:39:53.867Z,26.94
2022-08-08T14:42:33.731Z,26.96
2022-08-08T14:45:09.911Z,27.04
2022-08-08T14:47:53.569Z,27.03
2022-08-08T14:50:38.424Z,27.18
2022-08-08T14:53:14.102Z,27.24
2022-08-08T14:55:43.085Z,27.25
2022-08-08T14:58:16.926Z,27.15
2022-08-08T15:00:48.742Z,26.90
2022-08-08T15:03:17.331Z,26.81
2022-08-08T15:05:53.272Z,26.80
2022-08-08T15:08:35.055Z,26.86
2022-08-08T15:11:09.031Z,26.94
2022-08-08T15:13:40.998Z,26.98
2022-08-08T15:16:24.484Z,27.06
2022-08-08T15:18:51.943Z,26.93
2022-08-08T15:21:20.662Z,26.97
2022-08-08T15:23:51.267Z,26.96
2022-08-08T15:26:21.215Z,27.00
2022-08-08T15:28:54.175Z,27.02
2022-08-08T15:31:53.991Z,26.99
2022-08-08T15:34:28.943Z,27.06
2022-08-08T15:36:59.704Z,27.08
2022-08-08T15:39:37.909Z,27.10
2022-08-08T15:42:10.837Z,27.02
2022-08-08T15:44:42.410Z,26.98
2022-08-08T15:47:15.893Z,26.98
2022-08-08T15:49:47.597Z,26.98
2022-08-08T15:52:18.084Z,26.98
2022-08-08T15:54:51.839Z,26.91
2022-08-08T15:57:20.819Z,26.96
2022-08-08T16:00:26.253Z,26.97
2022-08-08T16:02:36.053Z,27.01
2022-08-08T16:05:13.673Z,27.00
2022-08-08T16:07:52.403Z,26.99
2022-08-08T16:13:10.006Z,27.02
2022-08-08T16:13:30.932Z,27.00
2022-08-08T16:16:09.458Z,27.01
2022-08-08T16:18:57.279Z,26.99
2022-08-08T16:21:29.415Z,27.00
2022-08-08T16:23:58.005Z,26.93
2022-08-08T16:26:34.661Z,26.90
2022-08-08T16:29:16.161Z,26.90
2022-08-08T16:31:48.481Z,26.87
2022-08-08T16:34:20.754Z,26.92
2022-08-08T16:36:51.864Z,26.84
2022-08-08T16:39:49.159Z,26.80
2022-08-08T16:42:17.950Z,26.75
2022-08-08T16:44:47.488Z,26.70
2022-08-08T16:47:40.590Z,26.71
2022-08-08T16:50:14.549Z,26.64
2022-08-08T16:55:06.676Z,26.56
2022-08-08T16:55:53.940Z,26.54
2022-08-08T16:58:29.256Z,26.46
2022-08-08T17:01:00.167Z,26.39
2022-08-08T17:04:00.002Z,26.34
2022-08-08T17:06:36.940Z,26.33
2022-08-08T17:09:02.547Z,26.34
2022-08-08T17:11:48.617Z,26.31
2022-08-08T17:14:19.928Z,26.34
2022-08-08T17:16:57.322Z,26.31
2022-08-08T17:19:29.988Z,26.21
2022-08-08T17:22:01.254Z,26.22
2022-08-08T17:24:30.718Z,26.23
2022-08-08T17:27:02.422Z,26.18
2022-08-08T17:29:34.050Z,26.10
2022-08-08T17:32:05.997Z,26.07
2022-08-08T17:35:44.396Z,26.09
2022-08-08T17:37:24.940Z,26.03
2022-08-08T17:40:11.146Z,26.03
2022-08-08T17:42:38.921Z,25.99
2022-08-08T17:45:07.534Z,25.95
2022-08-08T17:47:51.087Z,25.79
2022-08-08T17:50:18.450Z,25.88
2022-08-08T17:52:47.622Z,25.79
2022-08-08T17:56:05.191Z,25.72
2022-08-08T17:58:02.172Z,25.65
2022-08-08T18:00:30.784Z,25.63
2022-08-08T18:03:08.552Z,25.57
2022-08-08T18:05:48.443Z,25.53
2022-08-08T18:08:37.598Z,25.51
2022-08-08T18:11:16.827Z,25.40
2022-08-08T18:13:47.220Z,25.35
2022-08-08T18:16:16.980Z,25.31
2022-08-08T18:18:53.805Z,25.27
2022-08-08T18:21:59.590Z,25.21
2022-08-08T18:24:21.615Z,25.09
2022-08-08T18:26:53.873Z,25.00
2022-08-08T18:29:36.495Z,25.01
2022-08-08T18:32:09.257Z,24.92
2022-08-08T18:34:37.985Z,24.81
2022-08-08T18:37:08.042Z,24.76
2022-08-08T18:39:36.941Z,24.64
2022-08-08T18:42:10.248Z,24.61
2022-08-08T18:44:42.185Z,24.54
2022-08-08T18:47:09.047Z,24.47
2022-08-08T18:49:41.064Z,24.38
2022-08-08T18:52:23.853Z,24.31
2022-08-08T18:55:00.639Z,24.28
2022-08-08T18:57:44.725Z,24.18
2022-08-08T19:00:19.793Z,24.13
2022-08-08T19:02:55.459Z,24.04
2022-08-08T19:05:34.060Z,23.98
2022-08-08T19:08:25.366Z,23.86
2022-08-08T19:10:58.643Z,23.85
2022-08-08T19:13:52.379Z,23.74
2022-08-08T19:16:18.397Z,23.65
2022-08-08T19:18:54.453Z,23.57
2022-08-08T19:21:30.655Z,23.46
2022-08-08T19:23:59.839Z,23.38
2022-08-08T19:26:30.341Z,23.25
2022-08-08T19:29:01.838Z,23.25
2022-08-08T19:31:31.698Z,23.11
2022-08-08T19:34:35.763Z,23.07
2022-08-08T19:36:59.221Z,22.97
2022-08-08T19:39:30.918Z,22.87
2022-08-08T19:42:07.099Z,22.79
2022-08-08T19:44:42.735Z,22.69
2022-08-08T19:47:12.366Z,22.57
2022-08-08T19:49:39.761Z,22.50
2022-08-08T19:52:13.521Z,22.38
2022-08-08T19:54:43.112Z,22.32
2022-08-08T19:57:10.443Z,22.25
2022-08-08T19:59:42.172Z,22.18
2022-08-08T20:02:10.535Z,22.10
2022-08-08T20:04:38.189Z,22.02
2022-08-08T20:08:30.948Z,21.94
2022-08-08T20:09:57.087Z,21.85
2022-08-08T20:12:32.517Z,21.74
2022-08-08T20:15:14.333Z,21.70
2022-08-08T20:17:46.683Z,21.58
2022-08-08T20:20:19.190Z,21.52
2022-08-08T20:22:53.785Z,21.44
2022-08-08T20:25:24.591Z,21.37
2022-08-08T20:27:54.434Z,21.28
2022-08-08T20:30:53.712Z,21.20
2022-08-08T20:33:20.046Z,21.13
2022-08-08T20:35:57.016Z,21.02
2022-08-08T20:38:29.192Z,20.88
2022-08-08T20:40:59.449Z,20.85
2022-08-08T20:43:44.007Z,20.77
2022-08-08T20:46:13.757Z,20.74
2022-08-08T20:48:40.935Z,20.64
2022-08-08T20:51:08.183Z,20.63
2022-08-08T20:53:59.789Z,20.57
2022-08-08T20:56:35.015Z,20.47
2022-08-08T20:59:08.970Z,20.37
2022-08-08T21:02:05.737Z,20.31
2022-08-08T21:04:27.597Z,20.21
2022-08-08T21:06:56.040Z,20.16
2022-08-08T21:09:23.482Z,20.12
2022-08-08T21:12:03.041Z,20.04
2022-08-08T21:14:34.415Z,20.00
2022-08-08T21:17:06.737Z,19.90
2022-08-08T21:19:45.725Z,19.87
2022-08-08T21:22:15.250Z,19.79
2022-08-08T21:24:53.020Z,19.78
2022-08-08T21:28:05.243Z,19.70
2022-08-08T21:30:19.369Z,19.67
2022-08-08T21:32:51.799Z,19.59
2022-08-08T21:36:18.357Z,19.53
2022-08-08T21:38:16.300Z,19.47
2022-08-08T21:40:55.733Z,19.45
2022-08-08T21:43:33.037Z,19.40
2022-08-08T21:48:07.423Z,19.29
2022-08-08T21:48:55.157Z,19.25
2022-08-08T21:54:18.433Z,19.20
2022-08-08T21:54:33.580Z,19.14
2022-08-08T21:57:02.854Z,19.10
2022-08-08T21:59:59.407Z,19.06
2022-08-08T22:02:22.807Z,19.00
2022-08-08T22:04:56.082Z,18.93
2022-08-08T22:07:40.327Z,18.89
2022-08-08T22:10:18.135Z,18.81
2022-08-08T22:13:16.679Z,18.73
2022-08-08T22:15:59.089Z,18.72
2022-08-08T22:18:35.305Z,18.68
2022-08-08T22:21:13.734Z,18.61
2022-08-08T22:23:51.387Z,18.56
2022-08-08T22:26:30.997Z,18.51
2022-08-08T22:29:14.384Z,18.46
2022-08-08T22:31:58.561Z,18.43
2022-08-08T22:34:30.103Z,18.39
2022-08-08T22:36:56.914Z,18.34
2022-08-08T22:39:23.802Z,18.33
2022-08-08T22:42:10.550Z,18.25
2022-08-08T22:44:37.845Z,18.22
2022-08-08T22:47:15.930Z,18.19
2022-08-08T22:49:45.156Z,18.14
2022-08-08T22:52:25.851Z,18.09
2022-08-08T22:54:58.692Z,18.05
2022-08-08T22:57:43.666Z,18.02
2022-08-08T23:00:16.759Z,17.94
2022-08-08T23:02:44.785Z,17.91
2022-08-08T23:05:17.698Z,17.90
2022-08-08T23:07:50.981Z,17.83
2022-08-08T23:10:25.547Z,17.73
2022-08-08T23:12:54.248Z,17.70
2022-08-08T23:16:40.417Z,17.66
2022-08-08T23:18:12.118Z,17.55
2022-08-08T23:20:41.113Z,17.51
2022-08-08T23:23:10.819Z,17.49
2022-08-08T23:25:45.208Z,17.45
2022-08-08T23:28:17.775Z,17.44
2022-08-08T23:30:45.115Z,17.45
2022-08-08T23:33:19.118Z,17.42
2022-08-08T23:35:59.019Z,17.37
2022-08-08T23:38:34.513Z,17.26
2022-08-08T23:41:01.338Z,17.24
2022-08-08T23:43:45.707Z,17.22
2022-08-08T23:49:01.305Z,17.25
2022-08-08T23:49:18.302Z,17.21
2022-08-08T23:52:04.996Z,17.09
2022-08-08T23:54:43.535Z,17.05
2022-08-08T23:57:27.037Z,16.95
